Latest Coastal Weather Observations for Wilsons Promontory

IDV60701

Issued at 6:41 pm EDT Monday 20 November 2017 (issued every 10 minutes, with the page automatically refreshed every 10 minutes)

About coastal observations | Map of coastal stations | Coastal observations for VIC | Marine services | Other Formats
Station Details ID: 085096 Name: WILSONS PROMONTORY LIGHTHOUSE Lat: -39.13 Lon: 146.42 Height: 95.0 m
Data from the previous 72 hours. | See also: Recent months at Wilsons Promontory
Date/Time
EDT
Temp
°C
Wind Pressure Rain since
9am
mm
Weather Cloud Vis
km
Sea
Height
m
Swell
Dir  Spd
kts
Gust
kts
hPa Trend Height
m
Period
s
Dir
20/06:30pm 17.5 NNE 19 22 1021.9 - 0.0 - - - - - - -
20/06:00pm 17.9 NNE 18 22 1021.7 - 0.0 - - - - - - -
20/05:30pm 18.1 NNE 19 23 1021.9 - 0.0 - - - - - - -
20/05:00pm 18.2 NNE 18 21 1022.0 - 0.0 - - - - - - -
20/04:30pm 18.6 NNE 15 19 1022.1 - 0.0 - - - - - - -
20/04:00pm 18.9 NNE 16 18 1022.3 - 0.0 - - - - - - -
20/03:30pm 18.7 NNE 16 19 1022.4 - 0.0 - - - - - - -
20/03:00pm 19.6 NNE 15 17 1022.7 - 0.0 - - - - - - -
20/02:30pm 18.9 NE 15 18 1023.0 - 0.0 - - - - - - -
20/02:00pm 19.0 NE 15 17 1023.1 - 0.0 - - - - - - -
20/01:30pm 18.8 NE 14 16 1023.5 - 0.0 - - - - - - -
20/01:00pm 19.3 NE 14 16 1023.4 - 0.0 - - - - - - -
20/12:30pm 19.1 NE 13 15 1023.6 - 0.0 - - - - - - -
20/12:00pm 19.3 NE 12 14 1023.6 - 0.0 - - - - - - -
20/11:30am 19.6 NE 13 14 1023.6 - 0.0 - - - - - - -
20/11:00am 19.3 NE 10 13 1023.9 - 0.0 - - - - - - -
20/10:30am 19.6 NNE 10 12 1024.2 - 0.0 - - - - - - -
20/10:00am 18.7 NE 16 18 1023.7 - 0.0 - - - - - - -
20/09:30am 18.1 NE 17 20 1023.6 - 0.0 - - - - - - -
20/09:00am 17.7 NE 17 20 1023.4 - 0.0 - - - - - - -
20/08:30am 17.1 NE 17 20 1023.2 - 0.0 - - - - - - -
20/08:00am 16.9 NE 16 19 1023.2 - 0.0 - - - - - - -
20/07:30am 16.6 NE 15 17 1023.0 - 0.0 - - - - - - -
20/07:00am 16.1 NE 16 19 1022.8 - 0.0 - - - - - - -
20/06:30am 16.0 NE 12 16 1022.6 - 0.0 - - - - - - -
20/06:00am 15.9 NE 12 15 1022.3 - 0.0 - - - - - - -
20/05:30am 15.8 NE 14 18 1021.8 - 0.0 - - - - - - -
20/05:00am 15.8 NE 15 19 1021.5 - 0.0 - - - - - - -
20/04:30am 15.9 NE 14 19 1021.6 - 0.0 - - - - - - -
20/04:00am 15.8 NE 13 19 1021.5 - 0.0 - - - - - - -
20/03:30am 15.9 NE 13 19 1021.7 - 0.0 - - - - - - -
20/03:00am 15.9 ENE 15 19 1021.4 - 0.0 - - - - - - -
20/02:30am 16.0 ENE 15 18 1021.5 - 0.0 - - - - - - -
20/02:00am 16.0 NE 14 18 1021.5 - 0.0 - - - - - - -
20/01:30am 16.0 NE 15 18 1021.4 - 0.0 - - - - - - -
20/01:00am 16.1 NE 17 20 1021.5 - 0.0 - - - - - - -
20/12:30am 16.2 NE 17 21 1021.6 - 0.0 - - - - - - -
20/12:00am 16.3 NE 18 22 1021.7 - 0.0 - - - - - - -
 
Date/Time
EDT
Temp
°C
Wind Pressure Rain since
9am
mm
Weather Cloud Vis
km
Sea
Height
m
Swell
Dir  Spd
kts
Gust
kts
hPa Trend Height
m
Period
s
Dir
19/11:30pm 16.2 NE 16 21 1021.8 - 0.0 - - - - - - -
19/11:00pm 16.2 NE 19 22 1021.8 - 0.0 - - - - - - -
19/10:30pm 16.3 NE 19 23 1021.9 - 0.0 - - - - - - -
19/10:00pm 16.4 NE 19 22 1022.0 - 0.0 - - - - - - -
19/09:30pm 16.4 NE 19 21 1021.8 - 0.0 - - - - - - -
19/09:00pm 16.4 NE 19 22 1021.6 - 0.0 - - - - - - -
19/08:30pm 16.4 NE 18 21 1021.6 - 0.0 - - - - - - -
19/08:00pm 16.5 NE 16 20 1021.5 - 0.0 - - - - - - -
19/07:30pm 17.0 NE 15 18 1021.6 - 0.0 - - - - - - -
19/07:00pm 17.3 NE 12 16 1021.9 - 0.0 - - - - - - -
19/06:30pm 17.3 NE 13 15 1021.6 - 0.0 - - - - - - -
19/06:00pm 17.7 NE 12 15 1021.6 - 0.0 - - - - - - -
19/05:30pm 18.2 NE 12 14 1021.6 - 0.0 - - - - - - -
19/05:00pm 18.2 NE 12 14 1021.6 - 0.0 - - - - - - -
19/04:30pm 18.5 NE 13 15 1021.3 - 0.0 - - - - - - -
19/04:00pm 19.0 NE 12 15 1021.6 - 0.0 - - - - - - -
19/03:30pm 19.2 NNE 12 15 1021.8 - 0.0 - - - - - - -
19/03:00pm 18.8 NE 13 15 1021.9 - 0.0 - - - - - - -
19/02:30pm 19.0 NE 14 16 1021.9 - 0.0 - - - - - - -
19/02:00pm 19.4 NE 14 17 1021.9 - 0.0 - - - - - - -
19/01:30pm 19.6 NE 14 16 1022.1 - 0.0 - - - - - - -
19/01:00pm 18.9 NE 15 17 1022.1 - 0.0 - - - - - - -
19/12:30pm 19.2 NE 14 17 1022.2 - 0.0 - - - - - - -
19/12:00pm 19.4 NE 14 18 1022.4 - 0.0 - - - - - - -
19/11:30am 19.3 NE 15 18 1022.2 - 0.0 - - - - - - -
19/11:00am 19.3 NE 14 17 1022.1 - 0.0 - - - - - - -
19/10:30am 19.5 NE 14 16 1021.9 - 0.0 - - - - - - -
19/10:00am 19.7 NE 15 17 1021.8 - 0.0 - - - - - - -
19/09:30am 19.6 NE 15 17 1021.7 - 0.0 - - - - - - -
19/09:00am 19.2 NE 16 18 1021.6 - 0.0 - - - - - - -
19/08:30am 18.8 NNE 16 19 1021.3 - 0.0 - - - - - - -
19/08:00am 18.5 NNE 17 19 1021.0 - 0.0 - - - - - - -
19/07:30am 18.3 NNE 16 19 1020.6 - 0.0 - - - - - - -
19/07:00am 17.4 NNE 16 20 1020.2 - 0.0 - - - - - - -
19/06:30am 16.7 NNE 15 21 1019.8 - 0.0 - - - - - - -
19/06:00am 16.1 NNE 15 20 1019.5 - 0.0 - - - - - - -
19/05:30am 15.9 NNE 15 19 1019.2 - 0.0 - - - - - - -
19/05:00am 15.9 NNE 15 20 1019.0 - 0.0 - - - - - - -
19/04:30am 15.9 NNE 15 18 1019.0 - 0.0 - - - - - - -
19/04:00am 16.0 NNE 15 19 1019.1 - 0.0 - - - - - - -
19/03:30am 16.0 NNE 16 19 1019.0 - 0.0 - - - - - - -
19/03:00am 15.9 NNE 17 21 1019.0 - 0.0 - - - - - - -
19/02:30am 16.1 NNE 18 21 1019.0 - 0.0 - - - - - - -
19/02:00am 16.3 NNE 15 18 1019.3 - 0.0 - - - - - - -
19/01:30am 16.1 NNE 12 15 1019.4 - 0.0 - - - - - - -
19/01:00am 16.3 NNE 13 17 1019.5 - 0.0 - - - - - - -
19/12:30am 16.3 NNE 14 18 1019.4 - 0.0 - - - - - - -
19/12:00am 16.4 NNE 15 18 1019.6 - 0.0 - - - - - - -
 
Date/Time
EDT
Temp
°C
Wind Pressure Rain since
9am
mm
Weather Cloud Vis
km
Sea
Height
m
Swell
Dir  Spd
kts
Gust
kts
hPa Trend Height
m
Period
s
Dir
18/11:30pm 16.5 NNE 14 17 1019.7 - 0.0 - - - - - - -
18/11:00pm 16.6 NNE 14 18 1019.6 - 0.0 - - - - - - -
18/10:30pm 16.5 NE 17 20 1019.2 - 0.0 - - - - - - -
18/10:00pm 16.4 NE 14 17 1019.2 - 0.0 - - - - - - -
18/09:30pm 16.6 NNE 14 18 1019.0 - 0.0 - - - - - - -
18/09:00pm 16.7 NNE 15 20 1018.6 - 0.0 - - - - - - -
18/08:30pm 16.8 NNE 17 21 1018.4 - 0.0 - - - - - - -
18/08:00pm 17.0 NNE 17 21 1018.2 - 0.0 - - - - - - -
18/07:30pm 17.3 NNE 15 20 1018.1 - 0.0 - - - - - - -
18/07:00pm 17.4 NNE 18 25 1017.6 - 0.0 - - - - - - -
18/06:30pm 17.3 NNE 19 24 1017.3 - 0.0 - - - - - - -
18/06:00pm 17.2 NNE 18 22 1017.3 - 0.0 - - - - - - -
18/05:30pm 17.8 NNE 19 22 1017.1 - 0.0 - - - - - - -
18/05:00pm 18.2 NNE 18 22 1017.3 - 0.0 - - - - - - -
18/04:30pm 17.9 NNE 19 23 1017.4 - 0.0 - - - - - - -
18/04:00pm 18.1 NNE 17 21 1017.6 - 0.0 - - - - - - -
18/03:30pm 18.6 NNE 17 21 1017.7 - 0.0 - - - - - - -
18/03:00pm 19.1 NNE 17 20 1017.8 - 0.0 - - - - - - -
18/02:30pm 18.7 NNE 17 21 1017.9 - 0.0 - - - - - - -
18/02:00pm 18.9 NE 15 18 1018.0 - 0.0 - - - - - - -
18/01:30pm 19.6 NNE 15 19 1018.1 - 0.0 - - - - - - -
18/01:00pm 19.2 NNE 17 20 1018.2 - 0.0 - - - - - - -
18/12:30pm 18.9 NNE 17 19 1018.2 - 0.0 - - - - - - -
18/12:00pm 18.9 NNE 18 21 1018.2 - 0.0 - - - - - - -
18/11:30am 18.9 NNE 18 21 1018.3 - 0.0 - - - - - - -
18/11:00am 18.8 NNE 18 21 1018.2 - 0.0 - - - - - - -
18/10:30am 18.5 NNE 18 21 1018.1 - 0.0 - - - - - - -
18/10:00am 18.5 NNE 19 21 1018.2 - 0.0 - - - - - - -
18/09:30am 18.3 NE 17 19 1018.2 - 0.0 - - - - - - -
18/09:00am 18.1 NE 16 19 1018.2 - 0.0 - - - - - - -
18/08:30am 17.8 NE 17 19 1017.9 - 0.0 - - - - - - -
18/08:00am 17.5 NNE 17 19 1017.7 - 0.0 - - - - - - -
18/07:30am 17.5 NNE 17 20 1017.5 - 0.0 - - - - - - -
18/07:00am 17.1 NNE 16 19 1017.2 - 0.0 - - - - - - -
18/06:30am 16.4 NNE 14 18 1017.0 - 0.0 - - - - - - -
18/06:00am 15.9 NNE 14 18 1016.5 - 0.0 - - - - - - -
18/05:30am 15.9 NNE 16 20 1016.0 - 0.0 - - - - - - -
18/05:00am 15.9 NNE 15 20 1015.7 - 0.0 - - - - - - -
18/04:30am 16.1 NNE 17 24 1015.3 - 0.0 - - - - - - -
18/04:00am 16.0 NNE 17 23 1015.0 - 0.0 - - - - - - -
18/03:30am 15.8 NNE 16 21 1014.9 - 0.0 - - - - - - -
18/03:00am 15.7 NNE 16 21 1014.7 - 0.0 - - - - - - -
18/02:30am 15.9 NNE 17 23 1014.7 - 0.0 - - - - - - -
18/02:00am 16.0 NNE 17 21 1014.9 - 0.0 - - - - - - -
18/01:30am 15.9 NNE 17 22 1014.6 - 0.0 - - - - - - -
18/01:00am 15.8 NNE 18 21 1014.6 - 0.0 - - - - - - -
18/12:30am 15.8 NE 18 21 1014.7 - 0.0 - - - - - - -
18/12:00am 15.7 NE 15 17 1014.9 - 0.0 - - - - - - -
 
Date/Time
EDT
Temp
°C
Wind Pressure Rain since
9am
mm
Weather Cloud Vis
km
Sea
Height
m
Swell
Dir  Spd
kts
Gust
kts
hPa Trend Height
m
Period
s
Dir
17/11:30pm 15.8 NNE 14 17 1014.8 - 0.0 - - - - - - -
17/11:00pm 15.9 NNE 13 17 1014.8 - 0.0 - - - - - - -
17/10:30pm 15.9 NNE 15 18 1014.7 - 0.0 - - - - - - -
17/10:00pm 16.2 NNE 13 17 1014.8 - 0.0 - - - - - - -
17/09:30pm 16.1 NE 14 18 1014.6 - 0.0 - - - - - - -
17/09:00pm 16.1 NNE 15 18 1014.5 - 0.0 - - - - - - -
17/08:30pm 16.0 NE 17 20 1014.3 - 0.0 - - - - - - -
17/08:00pm 16.1 ENE 14 17 1014.3 - 0.0 - - - - - - -
17/07:30pm 16.5 NNE 13 15 1013.9 - 0.0 - - - - - - -
17/07:00pm 16.6 NNE 12 14 1013.9 - 0.0 - - - - - - -

Other Formats:

Comma delimited format used in spreadsheet applications
http://www.bom.gov.au/fwo/IDV60701/IDV60701.94893.axf

JavaScript Object Notation format (JSON) in row-major order
http://www.bom.gov.au/fwo/IDV60701/IDV60701.94893.json